createdAt,value
2017-07-26T00:00:28.152Z,11.70
2017-07-26T00:02:55.667Z,11.70
2017-07-26T00:05:23.178Z,11.70
2017-07-26T00:07:50.706Z,11.80
2017-07-26T00:10:18.206Z,11.70
2017-07-26T00:12:45.703Z,11.70
2017-07-26T00:15:13.218Z,11.80
2017-07-26T00:17:40.715Z,11.80
2017-07-26T00:20:08.226Z,11.70
2017-07-26T00:22:36.500Z,11.70
2017-07-26T00:25:04.786Z,11.60
2017-07-26T00:27:33.042Z,11.60
2017-07-26T00:30:01.015Z,11.60
2017-07-26T00:32:28.515Z,11.60
2017-07-26T00:34:56.030Z,11.60
2017-07-26T00:37:23.530Z,11.50
2017-07-26T00:39:51.031Z,11.50
2017-07-26T00:42:18.552Z,11.50
2017-07-26T00:44:46.066Z,11.50
2017-07-26T00:47:13.581Z,11.50
2017-07-26T00:49:41.140Z,11.50
2017-07-26T00:52:08.663Z,11.40
2017-07-26T00:54:36.168Z,11.50
2017-07-26T00:57:03.688Z,11.50
2017-07-26T00:59:31.197Z,11.50
2017-07-26T01:01:58.729Z,11.50
2017-07-26T01:04:26.235Z,11.50
2017-07-26T01:06:53.731Z,11.50
2017-07-26T01:09:21.247Z,11.50
2017-07-26T01:11:48.751Z,11.60
2017-07-26T01:14:16.268Z,11.60
2017-07-26T01:16:44.529Z,11.50
2017-07-26T01:19:12.042Z,11.50
2017-07-26T01:21:39.550Z,11.50
2017-07-26T01:24:07.086Z,11.50
2017-07-26T01:26:34.586Z,11.50
2017-07-26T01:29:02.859Z,11.50
2017-07-26T01:31:31.140Z,11.50
2017-07-26T01:33:59.410Z,11.40
2017-07-26T01:36:27.703Z,11.40
2017-07-26T01:38:55.198Z,11.40
2017-07-26T01:41:22.714Z,11.40
2017-07-26T01:43:50.214Z,11.50
2017-07-26T01:46:17.761Z,11.40
2017-07-26T01:48:45.263Z,11.40
2017-07-26T01:51:12.769Z,11.40
2017-07-26T01:53:40.299Z,11.40
2017-07-26T01:56:08.568Z,11.40
2017-07-26T01:58:36.846Z,11.40
2017-07-26T02:01:05.119Z,11.30
2017-07-26T02:03:33.399Z,11.30
2017-07-26T02:06:01.659Z,11.40
2017-07-26T02:08:29.174Z,11.30
2017-07-26T02:10:56.674Z,11.30
2017-07-26T02:13:24.180Z,11.30
2017-07-26T02:15:51.718Z,11.40
2017-07-26T02:18:19.978Z,11.40
2017-07-26T02:20:48.260Z,11.40
2017-07-26T02:23:15.767Z,11.40
2017-07-26T02:25:43.290Z,11.40
2017-07-26T02:28:10.792Z,11.40
2017-07-26T02:30:38.300Z,11.40
2017-07-26T02:33:05.818Z,11.40
2017-07-26T02:35:33.315Z,11.40
2017-07-26T02:38:01.591Z,11.40
2017-07-26T02:40:29.099Z,11.40
2017-07-26T02:42:56.639Z,11.40
2017-07-26T02:45:24.140Z,11.40
2017-07-26T02:47:51.650Z,11.40
2017-07-26T02:50:19.162Z,11.40
2017-07-26T02:52:46.660Z,11.40
2017-07-26T02:55:14.198Z,11.40
2017-07-26T02:57:41.696Z,11.50
2017-07-26T03:00:09.240Z,11.50
2017-07-26T03:02:36.743Z,11.40
2017-07-26T03:05:04.246Z,11.50
2017-07-26T03:07:31.754Z,11.40
2017-07-26T03:09:59.250Z,11.40
2017-07-26T03:12:26.773Z,11.40
2017-07-26T03:14:54.276Z,11.40
2017-07-26T03:17:21.802Z,11.50
2017-07-26T03:19:49.304Z,11.50
2017-07-26T03:22:16.819Z,11.50
2017-07-26T03:24:45.088Z,11.50
2017-07-26T03:27:12.586Z,11.50
2017-07-26T03:29:40.110Z,11.40
2017-07-26T03:32:08.392Z,11.40
2017-07-26T03:34:36.678Z,11.40
2017-07-26T03:37:04.950Z,11.40
2017-07-26T03:39:33.230Z,11.40
2017-07-26T03:42:00.727Z,11.40
2017-07-26T03:44:28.264Z,11.40
2017-07-26T03:46:55.762Z,11.40
2017-07-26T03:49:23.257Z,11.40
2017-07-26T03:51:50.771Z,11.50
2017-07-26T03:54:18.279Z,11.40
2017-07-26T03:56:45.803Z,11.40
2017-07-26T03:59:13.309Z,11.50
2017-07-26T04:01:40.826Z,11.40
2017-07-26T04:04:08.327Z,11.50
2017-07-26T04:06:35.862Z,11.40
2017-07-26T04:09:04.143Z,11.40
2017-07-26T04:11:32.419Z,11.50
2017-07-26T04:14:00.700Z,11.40
2017-07-26T04:16:28.976Z,11.40
2017-07-26T04:18:56.501Z,11.40
2017-07-26T04:21:23.998Z,11.40
2017-07-26T04:23:51.515Z,11.40
2017-07-26T04:26:19.019Z,11.50
2017-07-26T04:28:46.548Z,11.50
2017-07-26T04:31:14.817Z,11.50
2017-07-26T04:33:42.315Z,11.50
2017-07-26T04:36:09.832Z,11.50
2017-07-26T04:38:37.335Z,11.50
2017-07-26T04:41:04.851Z,11.50
2017-07-26T04:46:06.422Z,11.60
2017-07-26T04:48:33.928Z,11.60
2017-07-26T04:51:01.467Z,11.60
2017-07-26T04:53:28.967Z,11.60
2017-07-26T04:55:56.461Z,11.60
2017-07-26T04:58:23.986Z,11.60
2017-07-26T05:00:51.494Z,11.70
2017-07-26T05:03:19.021Z,11.80
2017-07-26T05:05:46.520Z,11.70
2017-07-26T05:08:14.039Z,11.80
2017-07-26T05:10:41.544Z,11.80
2017-07-26T05:13:09.065Z,11.80
2017-07-26T05:18:04.307Z,11.90
2017-07-26T05:20:31.812Z,11.80
2017-07-26T05:22:59.314Z,11.90
2017-07-26T05:25:26.843Z,12.00
2017-07-26T05:27:54.346Z,12.00
2017-07-26T05:30:21.868Z,12.00
2017-07-26T05:32:49.367Z,12.00
2017-07-26T05:35:16.888Z,12.00
2017-07-26T05:37:44.387Z,12.00
2017-07-26T05:40:11.907Z,12.00
2017-07-26T05:42:39.430Z,11.90
2017-07-26T05:45:06.960Z,12.00
2017-07-26T05:47:34.459Z,12.00
2017-07-26T05:50:01.964Z,12.00
2017-07-26T05:52:29.496Z,12.10
2017-07-26T05:54:57.011Z,12.00
2017-07-26T05:57:24.575Z,12.00
2017-07-26T05:59:52.089Z,12.10
2017-07-26T06:02:19.639Z,12.10
2017-07-26T06:04:47.161Z,12.10
2017-07-26T06:07:14.707Z,12.10
2017-07-26T06:09:42.220Z,12.00
2017-07-26T06:12:09.766Z,12.00
2017-07-26T06:14:37.270Z,12.10
2017-07-26T06:17:04.779Z,12.10
2017-07-26T06:19:33.690Z,12.10
2017-07-26T06:22:01.957Z,12.20
2017-07-26T06:24:30.243Z,12.30
2017-07-26T06:26:58.502Z,12.30
2017-07-26T06:29:26.019Z,12.30
2017-07-26T06:31:53.522Z,12.30
2017-07-26T06:34:21.819Z,12.30
2017-07-26T06:36:49.334Z,12.30
2017-07-26T06:39:16.872Z,12.40
2017-07-26T06:41:44.379Z,12.30
2017-07-26T06:44:11.883Z,12.30
2017-07-26T06:46:39.406Z,12.30
2017-07-26T06:49:06.907Z,12.20
2017-07-26T06:51:34.436Z,12.20
2017-07-26T06:54:01.942Z,12.30
2017-07-26T06:56:29.460Z,12.30
2017-07-26T06:58:56.976Z,12.40
2017-07-26T07:01:25.294Z,12.20
2017-07-26T07:03:52.799Z,12.20
2017-07-26T07:06:20.295Z,12.20
2017-07-26T07:08:47.820Z,12.20
2017-07-26T07:11:15.335Z,12.10
2017-07-26T07:13:42.856Z,12.10
2017-07-26T07:16:11.131Z,12.10
2017-07-26T07:18:39.420Z,12.10
2017-07-26T07:21:07.015Z,12.10
2017-07-26T07:23:34.538Z,12.10
2017-07-26T07:26:02.038Z,12.10
2017-07-26T07:28:29.566Z,12.10
2017-07-26T07:30:57.079Z,12.00
2017-07-26T07:33:24.582Z,12.00
2017-07-26T07:35:52.107Z,12.00
2017-07-26T07:38:20.376Z,11.90
2017-07-26T07:40:48.867Z,11.90
2017-07-26T07:43:18.416Z,12.00
2017-07-26T07:45:45.938Z,11.90
2017-07-26T07:48:14.197Z,12.00
2017-07-26T07:50:42.890Z,12.00
2017-07-26T07:53:11.739Z,11.90
2017-07-26T07:55:39.262Z,12.00
2017-07-26T07:58:11.404Z,12.00
2017-07-26T08:00:39.636Z,12.00
2017-07-26T08:03:07.647Z,12.00
2017-07-26T08:05:43.398Z,12.00
2017-07-26T08:08:28.087Z,12.00
2017-07-26T08:11:00.518Z,12.00
2017-07-26T08:13:28.050Z,12.00
2017-07-26T08:18:45.265Z,12.20
2017-07-26T08:21:13.423Z,12.10
2017-07-26T08:23:53.097Z,12.10
2017-07-26T08:26:22.430Z,12.10
2017-07-26T08:28:50.007Z,12.20
2017-07-26T08:31:17.523Z,12.20
2017-07-26T08:33:45.051Z,12.20
2017-07-26T08:36:13.197Z,12.20
2017-07-26T08:38:41.437Z,12.20
2017-07-26T08:41:09.837Z,12.30
2017-07-26T08:43:37.899Z,12.30
2017-07-26T08:46:05.423Z,12.30
2017-07-26T08:48:34.681Z,12.30
2017-07-26T08:51:09.451Z,12.30
2017-07-26T08:53:36.975Z,12.30
2017-07-26T08:56:04.487Z,12.40
2017-07-26T08:58:32.596Z,12.40
2017-07-26T09:01:00.927Z,12.40
2017-07-26T09:03:28.455Z,12.40
2017-07-26T09:05:56.466Z,12.50
2017-07-26T09:08:24.733Z,12.50
2017-07-26T09:10:52.698Z,12.50
2017-07-26T09:13:20.218Z,12.60
2017-07-26T09:15:48.670Z,12.60
2017-07-26T09:18:19.187Z,12.60
2017-07-26T09:20:46.716Z,12.50
2017-07-26T09:23:14.373Z,12.50
2017-07-26T09:25:41.901Z,12.50
2017-07-26T09:28:09.492Z,12.50
2017-07-26T09:30:39.600Z,12.50
2017-07-26T09:33:08.011Z,12.60
2017-07-26T09:35:35.557Z,12.60
2017-07-26T09:38:03.057Z,12.50
2017-07-26T09:40:31.495Z,12.50
2017-07-26T09:42:59.056Z,12.60
2017-07-26T09:45:28.150Z,12.60
2017-07-26T09:47:55.716Z,12.50
2017-07-26T09:50:23.224Z,12.50
2017-07-26T09:52:52.201Z,12.50
2017-07-26T09:55:20.789Z,12.60
2017-07-26T09:57:49.075Z,12.60
2017-07-26T10:00:17.343Z,12.60
2017-07-26T10:02:44.859Z,12.60
2017-07-26T10:05:12.359Z,12.70
2017-07-26T10:07:39.893Z,12.70
2017-07-26T10:10:07.390Z,12.70
2017-07-26T10:12:34.912Z,12.70
2017-07-26T10:15:03.903Z,12.80
2017-07-26T10:17:32.974Z,12.80
2017-07-26T10:20:00.831Z,12.60
2017-07-26T10:22:28.428Z,12.50
2017-07-26T10:24:55.955Z,12.60
2017-07-26T10:27:23.501Z,12.60
2017-07-26T10:32:24.943Z,12.50
2017-07-26T10:34:52.456Z,12.60
2017-07-26T10:37:19.946Z,12.50
2017-07-26T10:39:47.471Z,12.50
2017-07-26T10:42:14.972Z,12.50
2017-07-26T10:44:43.867Z,12.40
2017-07-26T10:47:12.160Z,12.40
2017-07-26T10:49:39.679Z,12.40
2017-07-26T10:52:07.418Z,12.50
2017-07-26T10:54:34.923Z,12.40
2017-07-26T10:57:03.218Z,12.50
2017-07-26T10:59:32.127Z,12.50
2017-07-26T11:02:00.089Z,12.50
2017-07-26T11:04:27.614Z,12.60
2017-07-26T11:06:55.927Z,12.60
2017-07-26T11:09:23.464Z,12.60
2017-07-26T11:11:50.993Z,12.70
2017-07-26T11:14:18.506Z,12.80
2017-07-26T11:16:46.002Z,12.80
2017-07-26T11:19:13.548Z,12.80
2017-07-26T11:21:41.916Z,12.80
2017-07-26T11:24:10.002Z,12.80
2017-07-26T11:26:37.502Z,12.70
2017-07-26T11:29:05.016Z,12.70
2017-07-26T11:31:34.364Z,12.80
2017-07-26T11:34:01.886Z,12.80
2017-07-26T11:39:08.004Z,12.90
2017-07-26T11:41:39.277Z,12.80
2017-07-26T11:44:06.789Z,12.70
2017-07-26T11:46:35.076Z,12.50
2017-07-26T11:49:03.339Z,12.50
2017-07-26T11:51:34.083Z,12.70
2017-07-26T11:54:04.436Z,12.70
2017-07-26T11:56:31.972Z,12.70
2017-07-26T11:59:00.142Z,12.70
2017-07-26T12:01:27.669Z,12.80
2017-07-26T12:03:55.181Z,12.80
2017-07-26T12:06:22.830Z,12.90
2017-07-26T12:08:51.175Z,12.80
2017-07-26T12:11:18.668Z,12.90
2017-07-26T12:13:46.185Z,12.90
2017-07-26T12:16:13.757Z,12.90
2017-07-26T12:18:42.058Z,12.80
2017-07-26T12:21:09.577Z,12.80
2017-07-26T12:23:37.102Z,12.80
2017-07-26T12:26:04.603Z,12.90
2017-07-26T12:28:32.140Z,13.00
2017-07-26T12:30:59.675Z,13.00
2017-07-26T12:33:29.779Z,12.90
2017-07-26T12:35:57.783Z,12.90
2017-07-26T12:38:25.338Z,13.00
2017-07-26T12:40:54.396Z,12.90
2017-07-26T12:43:24.815Z,13.00
2017-07-26T12:45:52.347Z,13.00
2017-07-26T12:48:19.846Z,13.00
2017-07-26T12:50:49.714Z,12.90
2017-07-26T12:53:17.211Z,12.80
2017-07-26T12:55:44.731Z,12.90
2017-07-26T12:58:14.002Z,12.80
2017-07-26T13:00:42.869Z,12.70
2017-07-26T13:03:11.961Z,12.90
2017-07-26T13:05:39.516Z,13.00
2017-07-26T13:08:07.069Z,12.90
2017-07-26T13:10:34.590Z,12.90
2017-07-26T13:13:02.568Z,12.90
2017-07-26T13:15:30.843Z,13.00
2017-07-26T13:18:00.531Z,13.00
2017-07-26T13:20:29.458Z,13.00
2017-07-26T13:22:58.058Z,13.00
2017-07-26T13:25:26.403Z,13.10
2017-07-26T13:27:56.451Z,13.10
2017-07-26T13:30:23.988Z,13.00
2017-07-26T13:32:51.490Z,13.10
2017-07-26T13:35:21.736Z,13.10
2017-07-26T13:38:04.541Z,13.10
2017-07-26T13:40:52.727Z,13.00
2017-07-26T13:43:20.283Z,13.00
2017-07-26T13:45:49.142Z,12.90
2017-07-26T13:48:20.041Z,12.90
2017-07-26T13:50:47.603Z,12.90
2017-07-26T13:53:15.120Z,12.90
2017-07-26T13:55:42.746Z,12.90
2017-07-26T13:58:12.012Z,13.00
2017-07-26T14:00:39.523Z,13.00
2017-07-26T14:03:07.262Z,13.00
2017-07-26T14:05:34.760Z,12.90
2017-07-26T14:08:02.281Z,13.00
2017-07-26T14:10:31.083Z,13.00
2017-07-26T14:12:59.613Z,13.00
2017-07-26T14:15:28.286Z,13.10
2017-07-26T14:17:57.076Z,13.00
2017-07-26T14:20:26.196Z,13.10
2017-07-26T14:22:55.167Z,13.10
2017-07-26T14:25:22.740Z,13.10
2017-07-26T14:27:50.255Z,13.20
2017-07-26T14:30:18.646Z,13.10
2017-07-26T14:32:46.155Z,13.10
2017-07-26T14:35:13.671Z,13.20
2017-07-26T14:37:42.442Z,13.10
2017-07-26T14:40:09.986Z,13.10
2017-07-26T14:42:37.483Z,13.00
2017-07-26T14:45:05.748Z,13.10
2017-07-26T14:47:34.038Z,13.20
2017-07-26T14:50:05.047Z,13.10
2017-07-26T14:52:32.558Z,13.10
2017-07-26T14:55:00.060Z,13.20
2017-07-26T14:57:27.580Z,13.20
2017-07-26T14:59:55.078Z,13.20
2017-07-26T15:02:22.597Z,13.30
2017-07-26T15:04:50.104Z,13.10
2017-07-26T15:07:17.601Z,13.10
2017-07-26T15:09:45.123Z,13.10
2017-07-26T15:12:12.619Z,13.20
2017-07-26T15:14:40.142Z,13.20
2017-07-26T15:17:07.647Z,13.20
2017-07-26T15:19:35.172Z,13.10
2017-07-26T15:22:03.458Z,13.10
2017-07-26T15:24:30.991Z,13.10
2017-07-26T15:26:59.272Z,13.10
2017-07-26T15:29:27.578Z,13.10
2017-07-26T15:31:55.075Z,13.10
2017-07-26T15:34:22.575Z,13.00
2017-07-26T15:36:50.094Z,13.00
2017-07-26T15:39:17.590Z,13.00
2017-07-26T15:41:45.110Z,12.90
2017-07-26T15:44:12.610Z,13.00
2017-07-26T15:46:40.122Z,13.10
2017-07-26T15:49:07.619Z,13.30
2017-07-26T15:51:36.056Z,13.30
2017-07-26T15:54:03.550Z,13.20
2017-07-26T15:56:31.066Z,13.20
2017-07-26T15:58:58.576Z,13.10
2017-07-26T16:01:26.075Z,13.10
2017-07-26T16:03:53.590Z,13.20
2017-07-26T16:06:21.090Z,13.20
2017-07-26T16:08:48.598Z,13.20
2017-07-26T16:11:16.099Z,13.00
2017-07-26T16:13:43.611Z,13.00
2017-07-26T16:16:11.112Z,13.10
2017-07-26T16:18:38.614Z,13.00
2017-07-26T16:21:06.129Z,12.90
2017-07-26T16:23:33.627Z,12.80
2017-07-26T16:26:01.138Z,12.80
2017-07-26T16:28:28.642Z,12.90
2017-07-26T16:30:56.150Z,12.90
2017-07-26T16:33:23.646Z,12.90
2017-07-26T16:35:51.155Z,13.00
2017-07-26T16:38:18.681Z,12.90
2017-07-26T16:40:46.183Z,13.00
2017-07-26T16:43:13.701Z,12.90
2017-07-26T16:45:41.194Z,12.90
2017-07-26T16:48:08.710Z,12.80
2017-07-26T16:50:36.202Z,12.80
2017-07-26T16:53:03.695Z,12.70
2017-07-26T16:55:31.212Z,12.90
2017-07-26T16:57:59.475Z,12.90
2017-07-26T17:00:27.762Z,12.90
2017-07-26T17:02:56.042Z,13.00
2017-07-26T17:05:24.319Z,12.90
2017-07-26T17:07:52.586Z,12.90
2017-07-26T17:10:20.098Z,12.90
2017-07-26T17:12:47.618Z,12.80
2017-07-26T17:15:15.114Z,13.00
2017-07-26T17:17:42.626Z,13.00
2017-07-26T17:20:10.123Z,12.90
2017-07-26T17:22:37.640Z,12.90
2017-07-26T17:25:05.138Z,13.00
2017-07-26T17:27:32.686Z,13.00
2017-07-26T17:30:00.564Z,13.00
2017-07-26T17:32:28.062Z,12.90
2017-07-26T17:34:55.588Z,13.00
2017-07-26T17:37:23.090Z,13.10
2017-07-26T17:39:51.376Z,13.00
2017-07-26T17:42:19.647Z,13.00
2017-07-26T17:44:47.162Z,13.00
2017-07-26T17:47:14.667Z,12.90
2017-07-26T17:49:42.181Z,13.10
2017-07-26T17:52:09.684Z,13.00
2017-07-26T17:54:37.188Z,12.90
2017-07-26T17:57:04.707Z,12.90
2017-07-26T17:59:32.215Z,13.00
2017-07-26T18:01:59.726Z,13.00
2017-07-26T18:04:27.227Z,12.90
2017-07-26T18:06:54.738Z,13.00
2017-07-26T18:09:22.244Z,12.90
2017-07-26T18:11:49.754Z,12.80
2017-07-26T18:14:17.280Z,12.80
2017-07-26T18:16:44.782Z,13.00
2017-07-26T18:19:12.306Z,13.00
2017-07-26T18:21:39.820Z,13.00
2017-07-26T18:24:07.357Z,12.90
2017-07-26T18:26:34.870Z,12.80
2017-07-26T18:29:02.400Z,12.90
2017-07-26T18:31:29.914Z,13.00
2017-07-26T18:33:58.199Z,13.10
2017-07-26T18:36:25.715Z,13.10
2017-07-26T18:38:53.215Z,13.10
2017-07-26T18:41:20.734Z,13.20
2017-07-26T18:43:48.258Z,13.10
2017-07-26T18:46:15.786Z,12.90
2017-07-26T18:48:44.079Z,12.80
2017-07-26T18:51:11.623Z,12.70
2017-07-26T18:53:39.164Z,12.70
2017-07-26T18:56:07.463Z,12.80
2017-07-26T18:58:34.979Z,12.70
2017-07-26T19:01:02.511Z,12.70
2017-07-26T19:03:30.034Z,12.70
2017-07-26T19:05:57.936Z,12.80
2017-07-26T19:08:26.195Z,12.80
2017-07-26T19:10:53.689Z,12.80
2017-07-26T19:13:21.191Z,12.70
2017-07-26T19:15:49.665Z,12.70
2017-07-26T19:18:17.171Z,12.80
2017-07-26T19:20:44.691Z,12.80
2017-07-26T19:23:12.195Z,12.80
2017-07-26T19:25:39.714Z,12.70
2017-07-26T19:28:07.215Z,12.80
2017-07-26T19:30:34.741Z,12.80
2017-07-26T19:33:02.238Z,12.80
2017-07-26T19:35:29.764Z,12.80
2017-07-26T19:37:57.285Z,12.80
2017-07-26T19:40:25.563Z,12.80
2017-07-26T19:42:53.850Z,12.90
2017-07-26T19:45:21.363Z,12.90
2017-07-26T19:47:48.892Z,12.80
2017-07-26T19:50:16.390Z,12.80
2017-07-26T19:52:43.931Z,12.80
2017-07-26T19:55:11.427Z,12.80
2017-07-26T19:57:39.717Z,12.80
2017-07-26T20:00:07.248Z,12.80
2017-07-26T20:02:34.757Z,12.90
2017-07-26T20:05:02.284Z,12.90
2017-07-26T20:07:29.925Z,12.90
2017-07-26T20:09:58.310Z,12.90
2017-07-26T20:12:26.591Z,12.90
2017-07-26T20:14:54.123Z,12.90
2017-07-26T20:17:21.635Z,12.90
2017-07-26T20:19:49.147Z,12.90
2017-07-26T20:22:16.671Z,12.90
2017-07-26T20:24:44.198Z,12.90
2017-07-26T20:27:11.718Z,12.90
2017-07-26T20:29:39.219Z,12.90
2017-07-26T20:32:06.738Z,12.90
2017-07-26T20:34:34.246Z,12.90
2017-07-26T20:37:01.774Z,12.80
2017-07-26T20:39:29.308Z,12.90
2017-07-26T20:41:57.368Z,12.90
2017-07-26T20:44:24.912Z,12.90
2017-07-26T20:46:52.429Z,12.90
2017-07-26T20:49:19.983Z,12.90
2017-07-26T20:51:48.252Z,13.00
2017-07-26T20:54:16.543Z,13.00
2017-07-26T20:56:44.384Z,13.00
2017-07-26T20:59:11.905Z,13.00
2017-07-26T21:01:39.418Z,12.90
2017-07-26T21:04:07.728Z,12.90
2017-07-26T21:06:35.222Z,12.90
2017-07-26T21:09:02.721Z,12.90
2017-07-26T21:11:30.243Z,12.90
2017-07-26T21:13:57.742Z,12.90
2017-07-26T21:16:25.262Z,12.90
2017-07-26T21:18:52.763Z,12.80
2017-07-26T21:21:20.274Z,12.80
2017-07-26T21:23:47.770Z,12.80
2017-07-26T21:26:15.306Z,12.80
2017-07-26T21:28:42.802Z,12.90
2017-07-26T21:31:10.311Z,12.90
2017-07-26T21:33:37.822Z,12.90
2017-07-26T21:36:05.331Z,12.90
2017-07-26T21:38:32.867Z,12.90
2017-07-26T21:41:00.362Z,12.80
2017-07-26T21:43:28.651Z,12.80
2017-07-26T21:45:56.187Z,12.80
2017-07-26T21:48:23.709Z,12.80
2017-07-26T21:50:51.227Z,12.80
2017-07-26T21:53:18.742Z,12.80
2017-07-26T21:55:46.242Z,12.80
2017-07-26T21:58:13.747Z,12.80
2017-07-26T22:00:41.271Z,12.80
2017-07-26T22:03:08.776Z,12.80
2017-07-26T22:05:36.299Z,12.80
2017-07-26T22:08:03.823Z,12.80
2017-07-26T22:10:32.114Z,12.70
2017-07-26T22:12:59.616Z,12.80
2017-07-26T22:15:27.142Z,12.80
2017-07-26T22:17:54.641Z,12.80
2017-07-26T22:20:22.154Z,12.80
2017-07-26T22:22:49.679Z,12.80
2017-07-26T22:25:17.175Z,12.90
2017-07-26T22:27:44.688Z,12.90
2017-07-26T22:30:12.183Z,12.90
2017-07-26T22:32:39.699Z,12.90
2017-07-26T22:35:07.211Z,12.80
2017-07-26T22:37:35.027Z,12.80
2017-07-26T22:40:02.561Z,12.90
2017-07-26T22:42:30.075Z,12.90
2017-07-26T22:44:57.591Z,12.90
2017-07-26T22:47:25.091Z,12.90
2017-07-26T22:49:52.611Z,12.90
2017-07-26T22:52:20.836Z,12.80
2017-07-26T22:54:48.366Z,12.80
2017-07-26T22:57:16.690Z,12.90
2017-07-26T22:59:44.203Z,12.90
2017-07-26T23:02:12.490Z,12.90
2017-07-26T23:04:39.991Z,12.90
2017-07-26T23:07:07.514Z,13.00
2017-07-26T23:09:35.023Z,12.90
2017-07-26T23:12:02.571Z,12.90
2017-07-26T23:14:30.075Z,12.90
2017-07-26T23:16:58.342Z,12.90
2017-07-26T23:19:26.626Z,12.90
2017-07-26T23:21:54.904Z,12.90
2017-07-26T23:24:23.190Z,12.90
2017-07-26T23:26:50.698Z,12.90
2017-07-26T23:29:18.219Z,12.90
2017-07-26T23:31:45.727Z,12.90
2017-07-26T23:34:13.248Z,12.90
2017-07-26T23:36:40.743Z,12.90
2017-07-26T23:39:08.247Z,12.80
2017-07-26T23:41:35.771Z,12.90
2017-07-26T23:44:03.275Z,12.80
2017-07-26T23:46:30.791Z,12.80
2017-07-26T23:48:58.293Z,12.80
2017-07-26T23:51:25.817Z,12.80
2017-07-26T23:53:53.318Z,12.80
2017-07-26T23:56:20.822Z,12.80
2017-07-26T23:58:48.337Z,12.70
